Terminal Aerodrome Forecast
Issued by NWS

Current Version | Previous Version | Text Only | Print | Product List | Glossary Off
Versions: 1 2 3 4 5 6 7 8 9 10 11 12 13 14 15 16 17 18 19 20

000
FTUS41 KILN 191406 AAA
TAFLCK
TAF AMD
KLCK 191406Z 1914/2012 26012KT P6SM FEW025
     FM191800 27013G22KT P6SM VCSH BKN050
      TEMPO 1921/1922 -SHRA
     FM200000 27008KT P6SM VCSH BKN050
     FM200300 25006KT P6SM FEW050=

USA.gov is the U.S. government's official web portal to all federal, state and local government web resources and services.